sensor_id;sensor_type;location;lat;lon;timestamp;P1;durP1;ratioP1;P2;durP2;ratioP2
83245;SDS011;73140;46.754;17.714;2024-02-28T00:01:06;5.72;;;4.20;;
83245;SDS011;73140;46.754;17.714;2024-02-28T00:03:32;6.25;;;4.80;;
83245;SDS011;73140;46.754;17.714;2024-02-28T00:05:58;5.65;;;4.50;;
83245;SDS011;73140;46.754;17.714;2024-02-28T00:08:24;4.95;;;4.35;;
83245;SDS011;73140;46.754;17.714;2024-02-28T00:10:50;5.78;;;4.35;;
83245;SDS011;73140;46.754;17.714;2024-02-28T00:13:16;5.20;;;4.05;;
83245;SDS011;73140;46.754;17.714;2024-02-28T00:15:44;7.50;;;5.75;;
83245;SDS011;73140;46.754;17.714;2024-02-28T00:18:10;6.60;;;5.10;;
83245;SDS011;73140;46.754;17.714;2024-02-28T00:20:36;5.43;;;4.40;;
83245;SDS011;73140;46.754;17.714;2024-02-28T00:23:02;5.55;;;4.72;;
83245;SDS011;73140;46.754;17.714;2024-02-28T00:25:28;5.95;;;4.75;;
83245;SDS011;73140;46.754;17.714;2024-02-28T00:27:54;5.20;;;4.18;;
83245;SDS011;73140;46.754;17.714;2024-02-28T00:30:20;5.05;;;4.55;;
83245;SDS011;73140;46.754;17.714;2024-02-28T00:32:48;4.53;;;4.10;;
83245;SDS011;73140;46.754;17.714;2024-02-28T00:35:14;5.97;;;4.63;;
83245;SDS011;73140;46.754;17.714;2024-02-28T00:37:40;5.70;;;4.38;;
83245;SDS011;73140;46.754;17.714;2024-02-28T00:40:07;6.28;;;4.70;;
83245;SDS011;73140;46.754;17.714;2024-02-28T00:42:34;7.32;;;5.25;;
83245;SDS011;73140;46.754;17.714;2024-02-28T00:45:00;5.85;;;4.45;;
83245;SDS011;73140;46.754;17.714;2024-02-28T00:47:26;6.28;;;5.15;;
83245;SDS011;73140;46.754;17.714;2024-02-28T00:49:53;6.20;;;5.45;;
83245;SDS011;73140;46.754;17.714;2024-02-28T00:52:19;5.88;;;5.28;;
83245;SDS011;73140;46.754;17.714;2024-02-28T00:54:45;5.45;;;4.60;;
83245;SDS011;73140;46.754;17.714;2024-02-28T00:57:11;6.80;;;5.43;;
83245;SDS011;73140;46.754;17.714;2024-02-28T00:59:37;6.95;;;5.70;;
83245;SDS011;73140;46.754;17.714;2024-02-28T01:02:03;6.53;;;5.13;;
83245;SDS011;73140;46.754;17.714;2024-02-28T01:04:29;5.70;;;5.10;;
83245;SDS011;73140;46.754;17.714;2024-02-28T01:06:56;6.20;;;5.43;;
83245;SDS011;73140;46.754;17.714;2024-02-28T01:09:22;6.68;;;5.97;;
83245;SDS011;73140;46.754;17.714;2024-02-28T01:11:48;6.07;;;5.47;;
83245;SDS011;73140;46.754;17.714;2024-02-28T01:14:14;6.07;;;5.47;;
83245;SDS011;73140;46.754;17.714;2024-02-28T01:16:40;9.05;;;6.25;;
83245;SDS011;73140;46.754;17.714;2024-02-28T01:19:06;6.97;;;5.55;;
83245;SDS011;73140;46.754;17.714;2024-02-28T01:21:32;7.93;;;6.00;;
83245;SDS011;73140;46.754;17.714;2024-02-28T01:24:00;7.13;;;6.10;;
83245;SDS011;73140;46.754;17.714;2024-02-28T01:26:26;5.93;;;5.32;;
83245;SDS011;73140;46.754;17.714;2024-02-28T01:28:52;6.13;;;5.50;;
83245;SDS011;73140;46.754;17.714;2024-02-28T01:31:18;6.90;;;5.30;;
83245;SDS011;73140;46.754;17.714;2024-02-28T01:33:43;7.30;;;5.30;;
83245;SDS011;73140;46.754;17.714;2024-02-28T01:36:10;7.28;;;5.40;;
83245;SDS011;73140;46.754;17.714;2024-02-28T01:38:37;5.10;;;4.47;;
83245;SDS011;73140;46.754;17.714;2024-02-28T01:41:04;5.47;;;4.55;;
83245;SDS011;73140;46.754;17.714;2024-02-28T01:43:30;5.40;;;4.32;;
83245;SDS011;73140;46.754;17.714;2024-02-28T01:45:57;5.10;;;4.10;;
83245;SDS011;73140;46.754;17.714;2024-02-28T01:48:26;5.85;;;4.75;;
83245;SDS011;73140;46.754;17.714;2024-02-28T01:50:52;6.18;;;4.53;;
83245;SDS011;73140;46.754;17.714;2024-02-28T01:53:18;5.63;;;4.53;;
83245;SDS011;73140;46.754;17.714;2024-02-28T01:55:45;7.88;;;5.10;;
83245;SDS011;73140;46.754;17.714;2024-02-28T01:58:14;6.22;;;4.75;;
83245;SDS011;73140;46.754;17.714;2024-02-28T02:00:40;5.20;;;4.45;;
83245;SDS011;73140;46.754;17.714;2024-02-28T02:03:06;5.03;;;4.53;;
83245;SDS011;73140;46.754;17.714;2024-02-28T02:05:32;5.32;;;4.60;;
83245;SDS011;73140;46.754;17.714;2024-02-28T02:07:58;6.85;;;5.32;;
83245;SDS011;73140;46.754;17.714;2024-02-28T02:10:26;6.28;;;5.40;;
83245;SDS011;73140;46.754;17.714;2024-02-28T02:12:53;6.68;;;5.60;;
83245;SDS011;73140;46.754;17.714;2024-02-28T02:15:21;6.10;;;4.95;;
83245;SDS011;73140;46.754;17.714;2024-02-28T02:17:47;5.88;;;4.93;;
83245;SDS011;73140;46.754;17.714;2024-02-28T02:20:14;6.10;;;4.97;;
83245;SDS011;73140;46.754;17.714;2024-02-28T02:22:42;6.05;;;5.30;;
83245;SDS011;73140;46.754;17.714;2024-02-28T02:25:08;6.00;;;5.40;;
83245;SDS011;73140;46.754;17.714;2024-02-28T02:27:34;9.13;;;7.53;;
83245;SDS011;73140;46.754;17.714;2024-02-28T02:30:00;8.23;;;6.80;;
83245;SDS011;73140;46.754;17.714;2024-02-28T02:32:27;10.38;;;8.15;;
83245;SDS011;73140;46.754;17.714;2024-02-28T02:34:54;9.27;;;7.50;;
83245;SDS011;73140;46.754;17.714;2024-02-28T02:37:19;8.05;;;7.25;;
83245;SDS011;73140;46.754;17.714;2024-02-28T02:39:47;7.97;;;7.15;;
83245;SDS011;73140;46.754;17.714;2024-02-28T02:42:13;8.02;;;7.10;;
83245;SDS011;73140;46.754;17.714;2024-02-28T02:44:40;7.47;;;6.00;;
83245;SDS011;73140;46.754;17.714;2024-02-28T02:47:07;8.10;;;7.13;;
83245;SDS011;73140;46.754;17.714;2024-02-28T02:49:33;8.00;;;6.57;;
83245;SDS011;73140;46.754;17.714;2024-02-28T02:51:59;7.30;;;6.10;;
83245;SDS011;73140;46.754;17.714;2024-02-28T02:54:25;7.35;;;6.35;;
83245;SDS011;73140;46.754;17.714;2024-02-28T02:56:52;7.03;;;6.22;;
83245;SDS011;73140;46.754;17.714;2024-02-28T02:59:18;7.63;;;6.30;;
83245;SDS011;73140;46.754;17.714;2024-02-28T03:01:47;8.82;;;6.43;;
83245;SDS011;73140;46.754;17.714;2024-02-28T03:04:15;8.15;;;6.90;;
83245;SDS011;73140;46.754;17.714;2024-02-28T03:06:41;8.52;;;7.13;;
83245;SDS011;73140;46.754;17.714;2024-02-28T03:09:07;8.13;;;6.13;;
83245;SDS011;73140;46.754;17.714;2024-02-28T03:11:33;7.90;;;6.60;;
83245;SDS011;73140;46.754;17.714;2024-02-28T03:14:02;8.35;;;7.00;;
83245;SDS011;73140;46.754;17.714;2024-02-28T03:16:28;7.13;;;6.03;;
83245;SDS011;73140;46.754;17.714;2024-02-28T03:18:54;8.60;;;6.30;;
83245;SDS011;73140;46.754;17.714;2024-02-28T03:21:22;6.90;;;5.93;;
83245;SDS011;73140;46.754;17.714;2024-02-28T03:23:48;6.57;;;5.60;;
83245;SDS011;73140;46.754;17.714;2024-02-28T03:26:14;5.70;;;4.97;;
83245;SDS011;73140;46.754;17.714;2024-02-28T03:28:40;6.93;;;5.75;;
83245;SDS011;73140;46.754;17.714;2024-02-28T03:31:07;8.48;;;6.38;;
83245;SDS011;73140;46.754;17.714;2024-02-28T03:33:33;7.00;;;5.75;;
83245;SDS011;73140;46.754;17.714;2024-02-28T03:36:00;6.72;;;5.55;;
83245;SDS011;73140;46.754;17.714;2024-02-28T03:38:27;6.38;;;4.78;;
83245;SDS011;73140;46.754;17.714;2024-02-28T03:40:53;6.57;;;5.47;;
83245;SDS011;73140;46.754;17.714;2024-02-28T03:43:19;6.30;;;5.70;;
83245;SDS011;73140;46.754;17.714;2024-02-28T03:45:45;6.82;;;5.50;;
83245;SDS011;73140;46.754;17.714;2024-02-28T03:48:12;6.30;;;5.40;;
83245;SDS011;73140;46.754;17.714;2024-02-28T03:50:38;7.28;;;5.70;;
83245;SDS011;73140;46.754;17.714;2024-02-28T03:53:04;7.97;;;6.03;;
83245;SDS011;73140;46.754;17.714;2024-02-28T03:55:30;6.75;;;5.93;;
83245;SDS011;73140;46.754;17.714;2024-02-28T03:57:56;6.95;;;5.68;;
83245;SDS011;73140;46.754;17.714;2024-02-28T04:00:22;7.53;;;6.03;;
83245;SDS011;73140;46.754;17.714;2024-02-28T04:02:48;7.63;;;5.90;;
83245;SDS011;73140;46.754;17.714;2024-02-28T04:05:16;7.63;;;6.18;;
83245;SDS011;73140;46.754;17.714;2024-02-28T04:07:42;6.97;;;5.75;;
83245;SDS011;73140;46.754;17.714;2024-02-28T04:10:08;6.60;;;5.90;;
83245;SDS011;73140;46.754;17.714;2024-02-28T04:12:36;7.13;;;5.80;;
83245;SDS011;73140;46.754;17.714;2024-02-28T04:15:02;8.52;;;6.35;;
83245;SDS011;73140;46.754;17.714;2024-02-28T04:17:28;6.53;;;5.30;;
83245;SDS011;73140;46.754;17.714;2024-02-28T04:19:54;7.13;;;5.63;;
83245;SDS011;73140;46.754;17.714;2024-02-28T04:22:24;8.30;;;7.50;;
83245;SDS011;73140;46.754;17.714;2024-02-28T04:24:50;7.65;;;6.00;;
83245;SDS011;73140;46.754;17.714;2024-02-28T04:27:16;6.97;;;6.13;;
83245;SDS011;73140;46.754;17.714;2024-02-28T04:29:42;5.43;;;4.70;;
83245;SDS011;73140;46.754;17.714;2024-02-28T04:32:08;6.63;;;5.55;;
83245;SDS011;73140;46.754;17.714;2024-02-28T04:34:35;8.68;;;6.22;;
83245;SDS011;73140;46.754;17.714;2024-02-28T04:37:01;6.75;;;5.32;;
83245;SDS011;73140;46.754;17.714;2024-02-28T04:39:29;6.72;;;5.88;;
83245;SDS011;73140;46.754;17.714;2024-02-28T04:41:55;7.85;;;5.90;;
83245;SDS011;73140;46.754;17.714;2024-02-28T04:44:21;6.57;;;5.28;;
83245;SDS011;73140;46.754;17.714;2024-02-28T04:46:47;6.45;;;5.00;;
83245;SDS011;73140;46.754;17.714;2024-02-28T04:49:13;8.60;;;5.95;;
83245;SDS011;73140;46.754;17.714;2024-02-28T04:51:39;6.18;;;5.40;;
83245;SDS011;73140;46.754;17.714;2024-02-28T04:54:04;6.00;;;5.10;;
83245;SDS011;73140;46.754;17.714;2024-02-28T04:56:32;6.57;;;4.95;;
83245;SDS011;73140;46.754;17.714;2024-02-28T04:58:58;6.93;;;5.95;;
83245;SDS011;73140;46.754;17.714;2024-02-28T05:01:24;8.15;;;5.75;;
83245;SDS011;73140;46.754;17.714;2024-02-28T05:03:50;7.50;;;5.55;;
83245;SDS011;73140;46.754;17.714;2024-02-28T05:06:16;7.03;;;5.35;;
83245;SDS011;73140;46.754;17.714;2024-02-28T05:08:41;6.97;;;5.13;;
83245;SDS011;73140;46.754;17.714;2024-02-28T05:11:07;7.07;;;5.25;;
83245;SDS011;73140;46.754;17.714;2024-02-28T05:13:36;6.32;;;5.40;;
83245;SDS011;73140;46.754;17.714;2024-02-28T05:16:02;6.32;;;5.65;;
83245;SDS011;73140;46.754;17.714;2024-02-28T05:18:28;6.28;;;4.80;;
83245;SDS011;73140;46.754;17.714;2024-02-28T05:20:54;6.60;;;5.25;;
83245;SDS011;73140;46.754;17.714;2024-02-28T05:23:20;7.30;;;5.38;;
83245;SDS011;73140;46.754;17.714;2024-02-28T05:25:46;6.65;;;4.93;;
83245;SDS011;73140;46.754;17.714;2024-02-28T05:28:12;7.35;;;5.55;;
83245;SDS011;73140;46.754;17.714;2024-02-28T05:30:39;6.75;;;5.82;;
83245;SDS011;73140;46.754;17.714;2024-02-28T05:33:06;5.70;;;5.00;;
83245;SDS011;73140;46.754;17.714;2024-02-28T05:35:32;7.65;;;5.85;;
83245;SDS011;73140;46.754;17.714;2024-02-28T05:37:58;8.20;;;5.43;;
83245;SDS011;73140;46.754;17.714;2024-02-28T05:40:24;5.88;;;5.22;;
83245;SDS011;73140;46.754;17.714;2024-02-28T05:42:50;7.38;;;5.43;;
83245;SDS011;73140;46.754;17.714;2024-02-28T05:45:15;6.93;;;5.60;;
83245;SDS011;73140;46.754;17.714;2024-02-28T05:47:43;5.97;;;5.32;;
83245;SDS011;73140;46.754;17.714;2024-02-28T05:50:09;6.75;;;5.68;;
83245;SDS011;73140;46.754;17.714;2024-02-28T05:52:35;7.15;;;5.32;;
83245;SDS011;73140;46.754;17.714;2024-02-28T05:55:02;7.72;;;5.00;;
83245;SDS011;73140;46.754;17.714;2024-02-28T05:57:28;8.02;;;5.68;;
83245;SDS011;73140;46.754;17.714;2024-02-28T05:59:54;8.38;;;6.03;;
83245;SDS011;73140;46.754;17.714;2024-02-28T06:02:20;7.07;;;5.88;;
83245;SDS011;73140;46.754;17.714;2024-02-28T06:04:47;7.30;;;6.30;;
83245;SDS011;73140;46.754;17.714;2024-02-28T06:07:13;6.57;;;5.68;;
83245;SDS011;73140;46.754;17.714;2024-02-28T06:09:39;7.18;;;5.65;;
83245;SDS011;73140;46.754;17.714;2024-02-28T06:12:05;6.28;;;5.68;;
83245;SDS011;73140;46.754;17.714;2024-02-28T06:14:32;7.75;;;5.97;;
83245;SDS011;73140;46.754;17.714;2024-02-28T06:16:58;6.63;;;5.80;;
83245;SDS011;73140;46.754;17.714;2024-02-28T06:19:24;6.15;;;5.47;;
83245;SDS011;73140;46.754;17.714;2024-02-28T06:21:51;6.10;;;5.50;;
83245;SDS011;73140;46.754;17.714;2024-02-28T06:24:17;7.03;;;5.72;;
83245;SDS011;73140;46.754;17.714;2024-02-28T06:26:43;7.10;;;5.65;;
83245;SDS011;73140;46.754;17.714;2024-02-28T06:29:09;6.80;;;5.88;;
83245;SDS011;73140;46.754;17.714;2024-02-28T06:31:35;7.32;;;5.53;;
83245;SDS011;73140;46.754;17.714;2024-02-28T06:34:01;6.55;;;5.45;;
83245;SDS011;73140;46.754;17.714;2024-02-28T06:36:29;6.13;;;5.40;;
83245;SDS011;73140;46.754;17.714;2024-02-28T06:38:56;8.07;;;6.25;;
83245;SDS011;73140;46.754;17.714;2024-02-28T06:41:23;6.85;;;5.90;;
83245;SDS011;73140;46.754;17.714;2024-02-28T06:43:49;6.55;;;5.80;;
83245;SDS011;73140;46.754;17.714;2024-02-28T06:46:15;8.05;;;6.22;;
83245;SDS011;73140;46.754;17.714;2024-02-28T06:48:41;6.65;;;5.72;;
83245;SDS011;73140;46.754;17.714;2024-02-28T06:51:07;7.90;;;5.70;;
83245;SDS011;73140;46.754;17.714;2024-02-28T06:53:33;9.35;;;6.43;;
83245;SDS011;73140;46.754;17.714;2024-02-28T06:56:02;7.07;;;5.93;;
83245;SDS011;73140;46.754;17.714;2024-02-28T06:58:28;6.40;;;5.80;;
83245;SDS011;73140;46.754;17.714;2024-02-28T07:00:54;6.63;;;5.90;;
83245;SDS011;73140;46.754;17.714;2024-02-28T07:03:20;6.68;;;5.97;;
83245;SDS011;73140;46.754;17.714;2024-02-28T07:05:46;8.05;;;6.50;;
83245;SDS011;73140;46.754;17.714;2024-02-28T07:08:12;7.45;;;6.60;;
83245;SDS011;73140;46.754;17.714;2024-02-28T07:10:38;7.28;;;6.55;;
83245;SDS011;73140;46.754;17.714;2024-02-28T07:13:10;6.82;;;6.13;;
83245;SDS011;73140;46.754;17.714;2024-02-28T07:15:36;7.90;;;5.82;;
83245;SDS011;73140;46.754;17.714;2024-02-28T07:18:02;6.45;;;5.75;;
83245;SDS011;73140;46.754;17.714;2024-02-28T07:20:28;6.82;;;6.13;;
83245;SDS011;73140;46.754;17.714;2024-02-28T07:22:54;7.35;;;6.40;;
83245;SDS011;73140;46.754;17.714;2024-02-28T07:25:20;7.35;;;6.30;;
83245;SDS011;73140;46.754;17.714;2024-02-28T07:27:47;7.57;;;6.28;;
83245;SDS011;73140;46.754;17.714;2024-02-28T07:30:15;7.30;;;5.97;;
83245;SDS011;73140;46.754;17.714;2024-02-28T07:32:41;6.68;;;5.72;;
83245;SDS011;73140;46.754;17.714;2024-02-28T07:35:07;7.57;;;6.45;;
83245;SDS011;73140;46.754;17.714;2024-02-28T07:37:34;6.95;;;6.22;;
83245;SDS011;73140;46.754;17.714;2024-02-28T07:39:59;6.80;;;6.13;;
83245;SDS011;73140;46.754;17.714;2024-02-28T07:42:25;7.78;;;6.25;;
83245;SDS011;73140;46.754;17.714;2024-02-28T07:44:52;7.20;;;6.50;;
83245;SDS011;73140;46.754;17.714;2024-02-28T07:47:23;9.25;;;7.15;;
83245;SDS011;73140;46.754;17.714;2024-02-28T07:49:49;7.75;;;6.55;;
83245;SDS011;73140;46.754;17.714;2024-02-28T07:52:16;7.10;;;6.40;;
83245;SDS011;73140;46.754;17.714;2024-02-28T07:54:42;7.82;;;6.38;;
83245;SDS011;73140;46.754;17.714;2024-02-28T07:57:11;8.07;;;6.90;;
83245;SDS011;73140;46.754;17.714;2024-02-28T07:59:38;8.30;;;6.57;;
83245;SDS011;73140;46.754;17.714;2024-02-28T08:02:05;7.28;;;6.55;;
83245;SDS011;73140;46.754;17.714;2024-02-28T08:04:32;7.55;;;6.75;;
83245;SDS011;73140;46.754;17.714;2024-02-28T08:06:59;8.50;;;6.22;;
83245;SDS011;73140;46.754;17.714;2024-02-28T08:09:25;7.90;;;7.05;;
83245;SDS011;73140;46.754;17.714;2024-02-28T08:11:51;7.20;;;6.50;;
83245;SDS011;73140;46.754;17.714;2024-02-28T08:14:17;8.05;;;6.60;;
83245;SDS011;73140;46.754;17.714;2024-02-28T08:16:43;7.43;;;6.63;;
83245;SDS011;73140;46.754;17.714;2024-02-28T08:19:10;7.28;;;6.32;;
83245;SDS011;73140;46.754;17.714;2024-02-28T08:21:38;8.07;;;7.28;;
83245;SDS011;73140;46.754;17.714;2024-02-28T08:24:04;8.32;;;7.07;;
83245;SDS011;73140;46.754;17.714;2024-02-28T08:26:30;6.85;;;6.15;;
83245;SDS011;73140;46.754;17.714;2024-02-28T08:28:56;7.47;;;6.50;;
83245;SDS011;73140;46.754;17.714;2024-02-28T08:31:22;7.85;;;7.13;;
83245;SDS011;73140;46.754;17.714;2024-02-28T08:33:48;7.88;;;7.10;;
83245;SDS011;73140;46.754;17.714;2024-02-28T08:36:14;9.02;;;6.82;;
83245;SDS011;73140;46.754;17.714;2024-02-28T08:38:44;8.23;;;6.95;;
83245;SDS011;73140;46.754;17.714;2024-02-28T08:41:10;7.82;;;7.03;;
83245;SDS011;73140;46.754;17.714;2024-02-28T08:43:38;7.80;;;6.70;;
83245;SDS011;73140;46.754;17.714;2024-02-28T08:46:04;8.00;;;7.00;;
83245;SDS011;73140;46.754;17.714;2024-02-28T08:48:30;8.32;;;6.90;;
83245;SDS011;73140;46.754;17.714;2024-02-28T08:50:56;8.23;;;6.53;;
83245;SDS011;73140;46.754;17.714;2024-02-28T08:53:22;8.32;;;7.03;;
83245;SDS011;73140;46.754;17.714;2024-02-28T08:55:49;7.53;;;6.72;;
83245;SDS011;73140;46.754;17.714;2024-02-28T08:58:15;7.82;;;7.03;;
83245;SDS011;73140;46.754;17.714;2024-02-28T09:00:41;8.10;;;6.45;;
83245;SDS011;73140;46.754;17.714;2024-02-28T09:03:07;7.57;;;6.20;;
83245;SDS011;73140;46.754;17.714;2024-02-28T09:05:33;7.00;;;6.32;;
83245;SDS011;73140;46.754;17.714;2024-02-28T09:07:59;8.00;;;6.28;;
83245;SDS011;73140;46.754;17.714;2024-02-28T09:10:25;7.03;;;6.32;;
83245;SDS011;73140;46.754;17.714;2024-02-28T09:12:52;9.45;;;7.00;;
83245;SDS011;73140;46.754;17.714;2024-02-28T09:15:19;6.63;;;5.65;;
83245;SDS011;73140;46.754;17.714;2024-02-28T09:17:45;7.38;;;6.47;;
83245;SDS011;73140;46.754;17.714;2024-02-28T09:20:11;7.18;;;6.47;;
83245;SDS011;73140;46.754;17.714;2024-02-28T09:22:37;6.72;;;6.13;;
83245;SDS011;73140;46.754;17.714;2024-02-28T09:25:04;6.97;;;6.28;;
83245;SDS011;73140;46.754;17.714;2024-02-28T09:27:31;7.47;;;6.55;;
83245;SDS011;73140;46.754;17.714;2024-02-28T09:29:59;7.68;;;6.88;;
83245;SDS011;73140;46.754;17.714;2024-02-28T09:32:25;9.60;;;6.70;;
83245;SDS011;73140;46.754;17.714;2024-02-28T09:34:51;7.97;;;7.18;;
83245;SDS011;73140;46.754;17.714;2024-02-28T09:37:17;8.43;;;7.10;;
83245;SDS011;73140;46.754;17.714;2024-02-28T09:39:43;7.22;;;6.47;;
83245;SDS011;73140;46.754;17.714;2024-02-28T09:42:10;7.50;;;6.55;;
83245;SDS011;73140;46.754;17.714;2024-02-28T09:44:36;6.90;;;6.20;;
83245;SDS011;73140;46.754;17.714;2024-02-28T09:47:04;7.35;;;6.57;;
83245;SDS011;73140;46.754;17.714;2024-02-28T09:49:31;6.95;;;6.25;;
83245;SDS011;73140;46.754;17.714;2024-02-28T09:51:57;6.72;;;6.03;;
83245;SDS011;73140;46.754;17.714;2024-02-28T09:54:24;7.35;;;6.20;;
83245;SDS011;73140;46.754;17.714;2024-02-28T09:56:50;8.73;;;6.60;;
83245;SDS011;73140;46.754;17.714;2024-02-28T09:59:17;6.85;;;6.15;;
83245;SDS011;73140;46.754;17.714;2024-02-28T10:01:44;8.38;;;6.70;;
83245;SDS011;73140;46.754;17.714;2024-02-28T10:04:18;7.40;;;6.55;;
83245;SDS011;73140;46.754;17.714;2024-02-28T10:06:46;6.78;;;6.07;;
83245;SDS011;73140;46.754;17.714;2024-02-28T10:11:41;7.30;;;6.50;;
83245;SDS011;73140;46.754;17.714;2024-02-28T10:14:11;6.53;;;5.93;;
83245;SDS011;73140;46.754;17.714;2024-02-28T10:16:37;6.82;;;6.00;;
83245;SDS011;73140;46.754;17.714;2024-02-28T10:19:04;6.65;;;5.95;;
83245;SDS011;73140;46.754;17.714;2024-02-28T10:21:32;8.43;;;6.97;;
83245;SDS011;73140;46.754;17.714;2024-02-28T10:23:59;6.97;;;6.18;;
83245;SDS011;73140;46.754;17.714;2024-02-28T10:26:25;7.60;;;6.47;;
83245;SDS011;73140;46.754;17.714;2024-02-28T10:28:51;6.35;;;5.72;;
83245;SDS011;73140;46.754;17.714;2024-02-28T10:31:17;6.80;;;6.10;;
83245;SDS011;73140;46.754;17.714;2024-02-28T10:33:43;7.35;;;6.40;;
83245;SDS011;73140;46.754;17.714;2024-02-28T10:36:09;7.45;;;6.55;;
83245;SDS011;73140;46.754;17.714;2024-02-28T10:38:38;8.48;;;6.30;;
83245;SDS011;73140;46.754;17.714;2024-02-28T10:41:04;7.88;;;6.18;;
83245;SDS011;73140;46.754;17.714;2024-02-28T10:43:31;7.45;;;5.75;;
83245;SDS011;73140;46.754;17.714;2024-02-28T10:46:00;6.97;;;6.25;;
83245;SDS011;73140;46.754;17.714;2024-02-28T10:48:26;6.15;;;5.55;;
83245;SDS011;73140;46.754;17.714;2024-02-28T10:50:53;7.07;;;6.38;;
83245;SDS011;73140;46.754;17.714;2024-02-28T10:53:22;7.03;;;5.97;;
83245;SDS011;73140;46.754;17.714;2024-02-28T10:55:59;6.60;;;6.00;;
83245;SDS011;73140;46.754;17.714;2024-02-28T10:58:33;6.10;;;5.32;;
83245;SDS011;73140;46.754;17.714;2024-02-28T11:01:02;7.70;;;6.47;;
83245;SDS011;73140;46.754;17.714;2024-02-28T11:03:29;6.70;;;6.10;;
83245;SDS011;73140;46.754;17.714;2024-02-28T11:05:56;7.43;;;6.60;;
83245;SDS011;73140;46.754;17.714;2024-02-28T11:08:23;7.65;;;6.00;;
83245;SDS011;73140;46.754;17.714;2024-02-28T11:10:54;7.35;;;6.10;;
83245;SDS011;73140;46.754;17.714;2024-02-28T11:13:23;6.72;;;6.03;;
83245;SDS011;73140;46.754;17.714;2024-02-28T11:15:49;8.13;;;6.90;;
83245;SDS011;73140;46.754;17.714;2024-02-28T11:18:15;7.57;;;6.53;;
83245;SDS011;73140;46.754;17.714;2024-02-28T11:20:41;6.90;;;6.20;;
83245;SDS011;73140;46.754;17.714;2024-02-28T11:23:09;8.80;;;6.60;;
83245;SDS011;73140;46.754;17.714;2024-02-28T11:25:35;8.20;;;7.30;;
83245;SDS011;73140;46.754;17.714;2024-02-28T11:28:01;6.80;;;5.95;;
83245;SDS011;73140;46.754;17.714;2024-02-28T11:30:28;7.82;;;6.65;;
83245;SDS011;73140;46.754;17.714;2024-02-28T11:32:55;7.50;;;6.70;;
83245;SDS011;73140;46.754;17.714;2024-02-28T11:35:24;7.43;;;6.18;;
83245;SDS011;73140;46.754;17.714;2024-02-28T11:37:50;7.57;;;6.30;;
83245;SDS011;73140;46.754;17.714;2024-02-28T11:40:16;8.38;;;6.45;;
83245;SDS011;73140;46.754;17.714;2024-02-28T11:42:42;8.20;;;6.70;;
83245;SDS011;73140;46.754;17.714;2024-02-28T11:45:09;8.15;;;6.28;;
83245;SDS011;73140;46.754;17.714;2024-02-28T11:47:37;7.07;;;6.28;;
83245;SDS011;73140;46.754;17.714;2024-02-28T11:50:04;9.50;;;6.55;;
83245;SDS011;73140;46.754;17.714;2024-02-28T11:52:31;7.18;;;6.47;;
83245;SDS011;73140;46.754;17.714;2024-02-28T11:54:57;8.48;;;6.38;;
83245;SDS011;73140;46.754;17.714;2024-02-28T11:57:23;7.80;;;7.05;;
83245;SDS011;73140;46.754;17.714;2024-02-28T11:59:49;7.20;;;6.10;;
83245;SDS011;73140;46.754;17.714;2024-02-28T12:02:17;6.68;;;6.03;;
83245;SDS011;73140;46.754;17.714;2024-02-28T12:04:45;6.50;;;5.90;;
83245;SDS011;73140;46.754;17.714;2024-02-28T12:07:11;7.57;;;6.80;;
83245;SDS011;73140;46.754;17.714;2024-02-28T12:09:37;7.05;;;6.35;;
83245;SDS011;73140;46.754;17.714;2024-02-28T12:12:06;7.80;;;6.82;;
83245;SDS011;73140;46.754;17.714;2024-02-28T12:14:36;7.32;;;6.30;;
83245;SDS011;73140;46.754;17.714;2024-02-28T12:17:04;6.75;;;6.15;;
83245;SDS011;73140;46.754;17.714;2024-02-28T12:19:30;7.25;;;6.55;;
83245;SDS011;73140;46.754;17.714;2024-02-28T12:21:57;6.53;;;5.88;;
83245;SDS011;73140;46.754;17.714;2024-02-28T12:24:24;6.80;;;6.20;;
83245;SDS011;73140;46.754;17.714;2024-02-28T12:26:50;7.32;;;6.60;;
83245;SDS011;73140;46.754;17.714;2024-02-28T12:29:16;7.53;;;6.82;;
83245;SDS011;73140;46.754;17.714;2024-02-28T12:31:42;7.43;;;6.68;;
83245;SDS011;73140;46.754;17.714;2024-02-28T12:34:07;7.90;;;7.10;;
83245;SDS011;73140;46.754;17.714;2024-02-28T12:36:33;8.50;;;7.70;;
83245;SDS011;73140;46.754;17.714;2024-02-28T12:39:01;6.68;;;6.03;;
83245;SDS011;73140;46.754;17.714;2024-02-28T12:41:27;7.70;;;7.00;;
83245;SDS011;73140;46.754;17.714;2024-02-28T12:43:53;9.20;;;6.80;;
83245;SDS011;73140;46.754;17.714;2024-02-28T12:46:20;7.43;;;6.72;;
83245;SDS011;73140;46.754;17.714;2024-02-28T12:48:45;8.50;;;7.15;;
83245;SDS011;73140;46.754;17.714;2024-02-28T12:51:21;8.27;;;6.57;;
83245;SDS011;73140;46.754;17.714;2024-02-28T12:54:05;6.97;;;6.25;;
83245;SDS011;73140;46.754;17.714;2024-02-28T12:56:31;7.57;;;6.78;;
83245;SDS011;73140;46.754;17.714;2024-02-28T12:58:57;7.20;;;6.50;;
83245;SDS011;73140;46.754;17.714;2024-02-28T13:01:23;7.00;;;6.30;;
83245;SDS011;73140;46.754;17.714;2024-02-28T13:03:49;7.80;;;6.43;;
83245;SDS011;73140;46.754;17.714;2024-02-28T13:06:15;7.22;;;6.47;;
83245;SDS011;73140;46.754;17.714;2024-02-28T13:08:41;6.57;;;5.95;;
83245;SDS011;73140;46.754;17.714;2024-02-28T13:11:09;8.25;;;6.80;;
83245;SDS011;73140;46.754;17.714;2024-02-28T13:13:35;7.53;;;6.63;;
83245;SDS011;73140;46.754;17.714;2024-02-28T13:16:01;7.47;;;6.88;;
83245;SDS011;73140;46.754;17.714;2024-02-28T13:18:28;8.73;;;6.85;;
83245;SDS011;73140;46.754;17.714;2024-02-28T13:20:54;8.20;;;7.40;;
83245;SDS011;73140;46.754;17.714;2024-02-28T13:23:19;7.28;;;6.30;;
83245;SDS011;73140;46.754;17.714;2024-02-28T13:25:45;7.43;;;6.63;;
83245;SDS011;73140;46.754;17.714;2024-02-28T13:28:13;9.00;;;7.05;;
83245;SDS011;73140;46.754;17.714;2024-02-28T13:30:39;7.72;;;6.93;;
83245;SDS011;73140;46.754;17.714;2024-02-28T13:33:05;8.35;;;7.47;;
83245;SDS011;73140;46.754;17.714;2024-02-28T13:35:32;7.18;;;6.47;;
83245;SDS011;73140;46.754;17.714;2024-02-28T13:37:58;7.30;;;6.57;;
83245;SDS011;73140;46.754;17.714;2024-02-28T13:40:25;7.82;;;7.03;;
83245;SDS011;73140;46.754;17.714;2024-02-28T13:42:51;6.78;;;5.78;;
83245;SDS011;73140;46.754;17.714;2024-02-28T13:45:19;7.82;;;7.03;;
83245;SDS011;73140;46.754;17.714;2024-02-28T13:47:45;7.30;;;6.60;;
83245;SDS011;73140;46.754;17.714;2024-02-28T13:50:11;7.75;;;5.55;;
83245;SDS011;73140;46.754;17.714;2024-02-28T13:52:37;7.35;;;5.35;;
83245;SDS011;73140;46.754;17.714;2024-02-28T13:55:03;6.55;;;4.75;;
83245;SDS011;73140;46.754;17.714;2024-02-28T13:57:30;5.80;;;4.30;;
83245;SDS011;73140;46.754;17.714;2024-02-28T13:59:56;5.85;;;3.55;;
83245;SDS011;73140;46.754;17.714;2024-02-28T14:02:23;4.43;;;3.70;;
83245;SDS011;73140;46.754;17.714;2024-02-28T14:07:18;3.88;;;2.95;;
83245;SDS011;73140;46.754;17.714;2024-02-28T14:09:44;5.35;;;3.08;;
83245;SDS011;73140;46.754;17.714;2024-02-28T14:12:13;2.83;;;1.75;;
83245;SDS011;73140;46.754;17.714;2024-02-28T14:14:39;3.70;;;2.10;;
83245;SDS011;73140;46.754;17.714;2024-02-28T14:17:05;4.28;;;2.00;;
83245;SDS011;73140;46.754;17.714;2024-02-28T14:19:32;2.60;;;1.30;;
83245;SDS011;73140;46.754;17.714;2024-02-28T14:22:00;4.72;;;2.05;;
83245;SDS011;73140;46.754;17.714;2024-02-28T14:24:26;3.45;;;1.70;;
83245;SDS011;73140;46.754;17.714;2024-02-28T14:26:53;4.65;;;2.28;;
83245;SDS011;73140;46.754;17.714;2024-02-28T14:29:19;3.30;;;2.50;;
83245;SDS011;73140;46.754;17.714;2024-02-28T14:31:45;3.40;;;2.45;;
83245;SDS011;73140;46.754;17.714;2024-02-28T14:34:11;8.15;;;3.95;;